Time;durP1;ratioP1;P1;durP2;ratioP2;P2;SDS_P1;SDS_P2;PMS_P1;PMS_P2;Temp;Humidity;BMP_temperature;BMP_pressure;BME280_temperature;BME280_humidity;BME280_pressure;Samples;Min_cycle;Max_cycle;Signal;HPM_P1;HPM_P2
2020/12/09 00:01:39;;;;;;;2.70;2.50;;;7.10;99.90;;;;;;4942602;29;20023;-77
2020/12/09 00:04:04;;;;;;;1.50;1.40;;;7.00;99.90;;;;;;4938507;28;20023;-77
2020/12/09 00:06:40;;;;;;;2.22;1.73;;;7.00;99.90;;;;;;4941481;29;20422;-79
2020/12/09 00:09:08;;;;;;;2.53;1.85;;;7.10;99.90;;;;;;4948852;29;20187;-77
2020/12/09 00:11:34;;;;;;;2.38;2.17;;;7.10;99.90;;;;;;4947893;29;20026;-77
2020/12/09 00:14:01;;;;;;;1.55;1.45;;;7.10;99.90;;;;;;4935285;29;20028;-79
2020/12/09 00:16:35;;;;;;;2.20;2.00;;;7.00;99.90;;;;;;4936589;29;20031;-76
2020/12/09 00:19:03;;;;;;;1.85;1.65;;;7.00;99.90;;;;;;4943330;29;20035;-77
2020/12/09 00:21:33;;;;;;;2.78;2.58;;;7.00;99.90;;;;;;4953621;29;20494;-76
2020/12/09 00:24:00;;;;;;;2.08;1.65;;;6.90;99.90;;;;;;4959714;28;20070;-77
2020/12/09 00:26:27;;;;;;;2.35;2.05;;;6.90;99.90;;;;;;4952524;29;20046;-77
2020/12/09 00:28:57;;;;;;;2.13;1.70;;;6.80;99.90;;;;;;4943590;29;20047;-77
2020/12/09 00:31:26;;;;;;;2.35;2.10;;;6.80;99.90;;;;;;4938507;29;20057;-77
2020/12/09 00:33:52;;;;;;;2.50;2.13;;;6.90;99.90;;;;;;4954973;29;20031;-76
2020/12/09 00:36:21;;;;;;;1.60;1.50;;;6.90;99.90;;;;;;4947077;29;20032;-77
2020/12/09 00:38:51;;;;;;;3.58;1.42;;;6.90;99.90;;;;;;4950176;29;20087;-77
2020/12/09 00:41:25;;;;;;;3.08;1.23;;;6.90;99.90;;;;;;4932204;29;20055;-77
2020/12/09 00:43:52;;;;;;;1.85;1.60;;;6.90;99.90;;;;;;4947894;29;20031;-77
2020/12/09 00:46:20;;;;;;;1.42;1.33;;;6.90;99.90;;;;;;4951215;29;20290;-77
2020/12/09 00:48:47;;;;;;;1.40;1.30;;;6.80;99.90;;;;;;4950762;29;20377;-77
2020/12/09 00:51:18;;;;;;;1.90;1.80;;;6.80;99.90;;;;;;4954270;29;20031;-77
2020/12/09 00:53:44;;;;;;;1.40;1.40;;;6.80;99.90;;;;;;4953067;29;20097;-76
2020/12/09 00:56:11;;;;;;;1.40;1.30;;;6.70;99.90;;;;;;4963826;28;20029;-76
2020/12/09 00:58:37;;;;;;;1.60;1.50;;;6.70;99.90;;;;;;4963115;29;20031;-75
2020/12/09 01:01:05;;;;;;;1.50;1.40;;;6.60;99.90;;;;;;4967666;29;20023;-76
2020/12/09 01:03:34;;;;;;;1.50;1.40;;;6.50;99.90;;;;;;4944606;28;20156;-76
2020/12/09 01:06:03;;;;;;;1.73;1.55;;;6.40;99.90;;;;;;4958039;28;20133;-77
2020/12/09 01:08:35;;;;;;;2.30;1.70;;;6.40;99.90;;;;;;4954785;29;20050;-77
2020/12/09 01:11:01;;;;;;;1.92;1.60;;;6.60;99.90;;;;;;4953377;29;20047;-77
2020/12/09 01:13:27;;;;;;;2.33;2.13;;;6.50;99.90;;;;;;4964166;29;20054;-77
2020/12/09 01:15:53;;;;;;;1.77;1.67;;;6.60;99.90;;;;;;4938305;29;20032;-77
2020/12/09 01:18:22;;;;;;;2.22;2.00;;;6.60;99.90;;;;;;4950746;29;20050;-77
2020/12/09 01:20:48;;;;;;;2.63;2.40;;;6.60;99.90;;;;;;4949651;29;20032;-77
2020/12/09 01:23:14;;;;;;;2.40;2.20;;;6.60;99.90;;;;;;4956677;29;20042;-77
2020/12/09 01:25:43;;;;;;;3.60;3.17;;;6.60;99.90;;;;;;4953654;29;20022;-77
2020/12/09 01:28:08;;;;;;;3.72;2.90;;;6.60;99.90;;;;;;4940191;29;20027;-77
2020/12/09 01:30:35;;;;;;;4.35;3.92;;;6.50;99.90;;;;;;4955402;29;20031;-77
2020/12/09 01:33:06;;;;;;;4.00;3.60;;;6.50;99.90;;;;;;4970316;29;20035;-77
2020/12/09 01:35:32;;;;;;;4.50;3.92;;;6.50;99.90;;;;;;4963729;28;20074;-77
2020/12/09 01:37:58;;;;;;;3.90;3.35;;;6.50;99.90;;;;;;4953126;28;20050;-77
2020/12/09 01:40:24;;;;;;;5.53;3.35;;;6.50;99.90;;;;;;4962878;29;20036;-77
2020/12/09 01:42:50;;;;;;;5.25;4.05;;;6.50;99.90;;;;;;4967575;29;20038;-77
2020/12/09 01:45:19;;;;;;;;;;;6.40;99.90;;;;;;4969771;29;20027;-77
2020/12/09 01:47:49;;;;;;;3.33;3.03;;;6.40;99.90;;;;;;4968925;29;19910;-77
2020/12/09 01:50:15;;;;;;;5.82;4.28;;;6.40;99.90;;;;;;4972539;28;20084;-76
2020/12/09 01:52:41;;;;;;;6.28;5.20;;;6.40;99.90;;;;;;4970776;28;20050;-77
2020/12/09 01:55:08;;;;;;;3.53;3.22;;;6.50;99.90;;;;;;4968377;28;20083;-76
2020/12/09 01:57:40;;;;;;;4.10;3.67;;;6.50;99.90;;;;;;4953578;28;20031;-76
2020/12/09 02:00:06;;;;;;;4.85;4.25;;;6.50;99.90;;;;;;4967924;28;20036;-78
2020/12/09 02:02:59;;;;;;;3.47;2.88;;;6.50;99.90;;;;;;4938209;29;20032;-78
2020/12/09 02:05:39;;;;;;;2.67;2.45;;;6.60;99.90;;;;;;4954858;28;20032;-77
2020/12/09 02:08:27;;;;;;;3.05;2.75;;;6.60;99.90;;;;;;4951022;29;20031;-76
2020/12/09 02:14:27;;;;;;;5.13;3.65;;;6.70;99.90;;;;;;4943953;28;20058;-77
2020/12/09 02:20:18;;;;;;;4.75;4.28;;;6.70;99.90;;;;;;4958618;29;20035;-77
2020/12/09 02:22:59;;;;;;;3.75;3.45;;;6.70;99.90;;;;;;4955312;28;20059;-77
2020/12/09 02:25:32;;;;;;;4.10;3.70;;;6.70;99.90;;;;;;4957768;28;20031;-77
2020/12/09 02:28:20;;;;;;;5.20;3.88;;;6.70;99.90;;;;;;4963548;29;20031;-77
2020/12/09 02:30:49;;;;;;;3.22;3.03;;;6.70;99.90;;;;;;4939355;29;20031;-77
2020/12/09 02:33:31;;;;;;;3.65;3.35;;;6.70;99.90;;;;;;4941490;29;20130;-77
2020/12/09 02:36:11;;;;;;;3.78;3.47;;;6.70;99.90;;;;;;4955700;29;20079;-77
2020/12/09 02:38:51;;;;;;;2.92;2.70;;;6.80;99.90;;;;;;4952285;29;20036;-77
2020/12/09 02:42:00;;;;;;;3.47;2.80;;;6.80;99.90;;;;;;4959488;29;20028;-77
2020/12/09 02:45:26;;;;;;;;;;;;;;;;;;;;;
2020/12/09 02:47:58;;;;;;;3.33;3.03;;;6.90;99.90;;;;;;4942209;29;20502;-77
2020/12/09 02:51:08;;;;;;;2.75;2.55;;;6.80;99.90;;;;;;4956723;29;20082;-76
2020/12/09 02:53:47;;;;;;;3.13;2.85;;;6.80;99.90;;;;;;4962389;29;20066;-77
2020/12/09 02:59:36;;;;;;;3.05;2.80;;;6.90;99.90;;;;;;4950034;29;20031;-77
2020/12/09 03:06:06;;;;;;;4.05;2.72;;;7.00;99.90;;;;;;4943004;28;20604;-77
2020/12/09 03:08:32;;;;;;;2.92;2.63;;;6.90;99.90;;;;;;4938019;29;20532;-77
2020/12/09 03:11:03;;;;;;;3.20;3.00;;;7.00;99.90;;;;;;4960986;28;20058;-76
2020/12/09 03:17:01;;;;;;;2.97;2.63;;;7.20;99.90;;;;;;4922522;29;20093;-76
2020/12/09 03:19:48;;;;;;;1.92;1.83;;;7.30;99.90;;;;;;4952051;29;20015;-77
2020/12/09 03:22:36;;;;;;;2.28;2.17;;;7.40;99.90;;;;;;4952422;29;20271;-76
2020/12/09 03:25:10;;;;;;;1.52;1.42;;;7.30;99.90;;;;;;4953639;29;20081;-77
2020/12/09 03:27:41;;;;;;;2.05;1.85;;;7.30;99.90;;;;;;4947634;29;20098;-76
2020/12/09 03:30:26;;;;;;;1.63;1.35;;;7.40;99.90;;;;;;4943646;29;20041;-77
2020/12/09 03:33:01;;;;;;;2.42;1.55;;;7.60;99.90;;;;;;4920617;29;20047;-77
2020/12/09 03:35:39;;;;;;;1.88;1.27;;;7.60;99.90;;;;;;4952968;29;20030;-79
2020/12/09 03:38:09;;;;;;;2.55;1.67;;;7.60;99.90;;;;;;4952118;29;20031;-76
2020/12/09 03:40:35;;;;;;;10.15;1.85;;;7.70;99.90;;;;;;4952695;29;20745;-77
2020/12/09 03:43:01;;;;;;;2.05;1.45;;;7.70;99.90;;;;;;4933978;29;20083;-77
2020/12/09 03:45:29;;;;;;;2.75;2.05;;;7.70;99.90;;;;;;4948235;29;20099;-77
2020/12/09 03:47:55;;;;;;;2.05;1.65;;;7.70;99.90;;;;;;4930952;29;20042;-76
2020/12/09 03:50:23;;;;;;;1.58;1.48;;;7.80;99.90;;;;;;4949231;29;20390;-78
2020/12/09 03:52:49;;;;;;;1.60;1.50;;;7.70;99.90;;;;;;4952620;29;20090;-76
2020/12/09 03:55:15;;;;;;;1.55;1.38;;;7.70;99.90;;;;;;4950327;28;20027;-77
2020/12/09 03:57:41;;;;;;;2.00;1.83;;;7.70;99.90;;;;;;4947876;29;20111;-76
2020/12/09 04:00:19;;;;;;;1.25;1.15;;;7.70;99.90;;;;;;4932277;29;20482;-76
2020/12/09 04:02:48;;;;;;;2.55;1.38;;;7.70;99.90;;;;;;4939289;29;20399;-77
2020/12/09 04:05:14;;;;;;;1.05;1.00;;;7.60;99.90;;;;;;4953370;28;20493;-76
2020/12/09 04:07:46;;;;;;;1.48;1.38;;;7.60;99.90;;;;;;4948813;29;20563;-76
2020/12/09 04:10:12;;;;;;;1.77;1.67;;;7.50;99.90;;;;;;4947018;29;20379;-76
2020/12/09 04:12:38;;;;;;;1.90;1.70;;;7.60;99.90;;;;;;4927230;29;20038;-75
2020/12/09 04:15:04;;;;;;;1.45;1.35;;;7.60;99.90;;;;;;4950988;28;20027;-76
2020/12/09 04:17:30;;;;;;;1.42;1.25;;;7.70;99.90;;;;;;4942453;29;20023;-76
2020/12/09 04:19:56;;;;;;;1.42;1.33;;;7.70;99.90;;;;;;4948511;29;20020;-76
2020/12/09 04:22:22;;;;;;;1.15;1.05;;;7.80;99.90;;;;;;4947470;29;20046;-76
2020/12/09 04:24:51;;;;;;;2.33;1.58;;;7.80;99.90;;;;;;4951101;28;20117;-76
2020/12/09 04:27:20;;;;;;;1.02;1.02;;;7.80;99.90;;;;;;4946937;29;20378;-76
2020/12/09 04:30:26;;;;;;;;;;;;;;;;;;;;;
2020/12/09 04:32:58;;;;;;;1.50;1.40;;;8.00;99.90;;;;;;4896487;29;20044;-76
2020/12/09 04:35:25;;;;;;;1.50;1.38;;;8.10;99.90;;;;;;4907877;29;20113;-76
2020/12/09 04:37:55;;;;;;;1.40;1.30;;;8.20;99.90;;;;;;4929163;29;20090;-76
2020/12/09 04:40:28;;;;;;;1.13;1.02;;;8.30;99.90;;;;;;4928961;29;20054;-76
2020/12/09 04:42:55;;;;;;;1.38;1.38;;;8.30;99.90;;;;;;4930057;29;20452;-76
2020/12/09 04:45:47;;;;;;;1.05;1.00;;;8.20;99.90;;;;;;4921209;29;20111;-76
2020/12/09 04:48:27;;;;;;;2.22;2.03;;;8.10;99.90;;;;;;4913157;29;20024;-75
2020/12/09 04:51:28;;;;;;;2.35;1.48;;;8.00;99.90;;;;;;4928939;29;20038;-76
2020/12/09 04:54:19;;;;;;;1.73;1.63;;;8.00;99.90;;;;;;4932126;29;20032;-75
2020/12/09 04:56:55;;;;;;;1.58;1.48;;;8.00;99.90;;;;;;4934195;29;20319;-75
2020/12/09 04:59:25;;;;;;;9.45;1.45;;;8.00;99.90;;;;;;4910291;29;20059;-75
2020/12/09 05:02:05;;;;;;;1.42;1.33;;;7.90;99.90;;;;;;4926134;29;20309;-76
2020/12/09 05:04:33;;;;;;;1.85;1.75;;;7.90;99.90;;;;;;4911506;29;20083;-76
2020/12/09 05:07:09;;;;;;;1.80;1.70;;;7.90;99.90;;;;;;4929319;29;20024;-76
2020/12/09 05:09:45;;;;;;;2.03;1.83;;;7.90;99.90;;;;;;4927110;29;20114;-75
2020/12/09 05:12:18;;;;;;;2.13;1.70;;;8.00;99.90;;;;;;4905359;29;20039;-76
2020/12/09 05:14:49;;;;;;;2.53;2.20;;;8.10;99.90;;;;;;4914953;29;20032;-76
2020/12/09 05:17:21;;;;;;;1.10;1.10;;;8.10;99.90;;;;;;4927113;29;20028;-76
2020/12/09 05:19:48;;;;;;;1.92;1.83;;;8.10;99.90;;;;;;4919285;29;20039;-76
2020/12/09 05:22:17;;;;;;;7.15;1.58;;;8.10;99.90;;;;;;4928872;29;20039;-76
2020/12/09 05:24:44;;;;;;;2.60;1.95;;;8.10;99.90;;;;;;4926558;29;20099;-77
2020/12/09 05:27:13;;;;;;;1.73;1.60;;;8.10;99.90;;;;;;4926049;29;20025;-76
2020/12/09 05:29:47;;;;;;;1.13;1.02;;;8.10;99.90;;;;;;4934040;29;20044;-76
2020/12/09 05:32:14;;;;;;;1.92;1.40;;;8.00;99.90;;;;;;4912736;29;20059;-75
2020/12/09 05:34:40;;;;;;;1.40;1.30;;;7.90;99.90;;;;;;4930077;29;20024;-76
2020/12/09 05:37:08;;;;;;;1.67;1.50;;;8.00;99.90;;;;;;4914307;29;20055;-76
2020/12/09 05:39:47;;;;;;;1.45;1.35;;;8.00;99.90;;;;;;4927022;29;20439;-76
2020/12/09 05:42:16;;;;;;;1.88;1.35;;;7.90;99.90;;;;;;4931985;29;20035;-76
2020/12/09 05:44:45;;;;;;;3.25;1.77;;;7.90;99.90;;;;;;4923481;29;20028;-76
2020/12/09 05:47:12;;;;;;;1.52;1.42;;;8.00;99.90;;;;;;4911034;29;20244;-77
2020/12/09 05:49:49;;;;;;;1.45;1.35;;;7.90;99.90;;;;;;4930834;29;20036;-74
2020/12/09 05:52:19;;;;;;;2.35;1.65;;;7.90;99.90;;;;;;4927667;29;20034;-75
2020/12/09 05:54:53;;;;;;;2.05;1.52;;;7.90;99.90;;;;;;4928954;29;20052;-76
2020/12/09 05:57:34;;;;;;;3.08;1.60;;;7.80;99.90;;;;;;4919406;29;20046;-77
2020/12/09 06:00:16;;;;;;;2.28;2.08;;;7.80;99.90;;;;;;4928672;29;20099;-76
2020/12/09 06:02:42;;;;;;;2.10;1.60;;;7.80;99.90;;;;;;4931763;29;20119;-75
2020/12/09 06:05:08;;;;;;;2.45;1.67;;;7.80;99.90;;;;;;4926953;29;20103;-76
2020/12/09 06:07:35;;;;;;;1.55;1.45;;;7.70;99.90;;;;;;4924559;29;20074;-76
2020/12/09 06:10:13;;;;;;;4.25;1.58;;;7.80;99.90;;;;;;4909420;29;20218;-77
2020/12/09 06:13:02;;;;;;;3.78;1.27;;;7.80;99.90;;;;;;4908623;29;20055;-77
2020/12/09 06:15:29;;;;;;;4.13;1.30;;;7.70;99.90;;;;;;4908339;29;20035;-76
2020/12/09 06:18:16;;;;;;;1.83;1.70;;;7.70;99.90;;;;;;4930914;29;20405;-75
2020/12/09 06:20:42;;;;;;;1.50;1.40;;;7.60;99.90;;;;;;4930016;29;20028;-77
2020/12/09 06:23:36;;;;;;;1.10;0.80;;;7.60;99.90;;;;;;4934781;29;20043;-77
2020/12/09 06:26:09;;;;;;;1.58;1.15;;;7.70;99.90;;;;;;4912733;29;20100;-77
2020/12/09 06:28:49;;;;;;;2.03;1.60;;;7.70;99.90;;;;;;4926269;29;20426;-77
2020/12/09 06:31:23;;;;;;;1.65;1.33;;;7.60;99.90;;;;;;4938684;29;20075;-77
2020/12/09 06:34:00;;;;;;;0.93;0.70;;;7.70;99.90;;;;;;4918165;29;20164;-77
2020/12/09 06:36:30;;;;;;;3.42;1.08;;;7.70;99.90;;;;;;4915064;29;20102;-77
2020/12/09 06:39:08;;;;;;;1.08;1.08;;;7.70;99.90;;;;;;4916365;29;20028;-77
2020/12/09 06:42:10;;;;;;;2.35;2.03;;;7.70;99.90;;;;;;4928703;29;20479;-77
2020/12/09 06:44:52;;;;;;;1.63;0.88;;;7.70;99.90;;;;;;4933193;29;20117;-77
2020/12/09 06:47:18;;;;;;;1.95;1.08;;;7.70;99.90;;;;;;4953525;29;20024;-76
2020/12/09 06:49:45;;;;;;;2.53;0.68;;;7.70;99.90;;;;;;4940054;29;20039;-75
2020/12/09 06:52:11;;;;;;;1.88;0.60;;;7.70;99.90;;;;;;4953400;29;20024;-78
2020/12/09 06:54:42;;;;;;;0.40;0.40;;;7.70;99.90;;;;;;4920677;29;20070;-76
2020/12/09 06:57:15;;;;;;;1.10;0.57;;;7.70;99.90;;;;;;4923163;29;20398;-73
2020/12/09 06:59:41;;;;;;;;;;;7.90;99.90;;;;;;4930430;29;20501;-73
2020/12/09 07:02:08;;;;;;;0.65;0.60;;;7.90;99.90;;;;;;4905093;29;20372;-75
2020/12/09 07:04:55;;;;;;;1.63;0.80;;;8.00;99.90;;;;;;4928994;29;20036;-75
2020/12/09 07:07:29;;;;;;;0.45;0.45;;;8.10;99.90;;;;;;4924608;29;20111;-74
2020/12/09 07:09:55;;;;;;;0.57;0.43;;;8.20;99.90;;;;;;4913022;29;20063;-74
2020/12/09 07:12:22;;;;;;;1.02;0.95;;;8.30;99.90;;;;;;4935601;29;20035;-74
2020/12/09 07:14:52;;;;;;;1.20;0.90;;;8.40;99.90;;;;;;4929177;29;20050;-75
2020/12/09 07:17:21;;;;;;;1.05;0.82;;;8.40;99.90;;;;;;4934887;29;20461;-75
2020/12/09 07:19:48;;;;;;;0.40;0.40;;;8.50;99.90;;;;;;4930708;29;20016;-75
2020/12/09 07:22:14;;;;;;;0.63;0.50;;;8.60;99.90;;;;;;4929373;29;20093;-74
2020/12/09 07:24:39;;;;;;;0.50;0.50;;;8.50;99.90;;;;;;4937794;29;20027;-74
2020/12/09 07:27:09;;;;;;;0.70;0.55;;;8.60;99.90;;;;;;4929308;29;20064;-74
2020/12/09 07:29:37;;;;;;;0.85;0.75;;;8.60;99.90;;;;;;4928131;29;20115;-74
2020/12/09 07:32:05;;;;;;;0.22;0.22;;;8.70;99.90;;;;;;4933285;29;20091;-73
2020/12/09 07:34:31;;;;;;;0.50;0.50;;;8.70;99.90;;;;;;4919898;29;20019;-73
2020/12/09 07:36:56;;;;;;;0.40;0.40;;;8.80;99.90;;;;;;4931057;29;20410;-75
2020/12/09 07:39:30;;;;;;;0.50;0.50;;;8.80;99.90;;;;;;4928593;29;20020;-75
2020/12/09 07:41:59;;;;;;;0.55;0.55;;;8.80;99.90;;;;;;4928001;29;20110;-75
2020/12/09 07:44:26;;;;;;;0.77;0.50;;;9.10;99.90;;;;;;4933479;29;20108;-73
2020/12/09 07:46:54;;;;;;;1.27;0.85;;;9.30;99.90;;;;;;4931190;29;20042;-75
2020/12/09 07:49:20;;;;;;;2.50;0.43;;;9.40;99.90;;;;;;4930337;29;20020;-75
2020/12/09 07:51:46;;;;;;;0.60;0.52;;;9.40;99.90;;;;;;4933771;29;20398;-74
2020/12/09 07:54:14;;;;;;;0.40;0.40;;;9.40;99.90;;;;;;4928740;29;20064;-74
2020/12/09 07:56:40;;;;;;;0.52;0.52;;;9.30;99.90;;;;;;4929571;29;20036;-73
2020/12/09 07:59:07;;;;;;;0.80;0.80;;;9.20;99.90;;;;;;4921792;29;20056;-72
2020/12/09 08:01:35;;;;;;;1.25;0.55;;;9.10;99.90;;;;;;4928966;29;20068;-74
2020/12/09 08:04:02;;;;;;;0.38;0.38;;;9.00;99.90;;;;;;4928594;29;20122;-74
2020/12/09 08:06:27;;;;;;;1.55;0.93;;;8.90;99.90;;;;;;4927219;29;20028;-74
2020/12/09 08:08:54;;;;;;;0.40;0.40;;;8.90;99.90;;;;;;4926559;29;20034;-74
2020/12/09 08:11:20;;;;;;;0.20;0.20;;;9.00;99.90;;;;;;4912961;29;20512;-77
2020/12/09 08:13:46;;;;;;;0.47;0.47;;;8.90;99.90;;;;;;4927778;29;20036;-75
2020/12/09 08:16:13;;;;;;;0.75;0.57;;;8.80;99.90;;;;;;4907108;29;20028;-74
2020/12/09 08:18:43;;;;;;;0.60;0.60;;;8.70;99.90;;;;;;4923223;29;20016;-73
2020/12/09 08:21:10;;;;;;;0.60;0.60;;;8.60;99.90;;;;;;4914318;29;20020;-72
2020/12/09 08:23:42;;;;;;;0.40;0.40;;;8.50;99.90;;;;;;4912402;29;20032;-73
2020/12/09 08:26:10;;;;;;;0.32;0.32;;;8.50;99.90;;;;;;4915208;29;20040;-74
2020/12/09 08:28:36;;;;;;;1.05;0.52;;;8.60;99.90;;;;;;4906752;29;20032;-74
2020/12/09 08:31:16;;;;;;;1.05;0.80;;;8.60;99.90;;;;;;4932231;29;20086;-74
2020/12/09 08:33:51;;;;;;;0.45;0.40;;;8.50;99.90;;;;;;4917964;29;20063;-75
2020/12/09 08:36:21;;;;;;;0.60;0.55;;;8.50;99.90;;;;;;4913891;29;20394;-72
2020/12/09 08:38:48;;;;;;;0.65;0.65;;;8.50;99.90;;;;;;4927162;29;20506;-73
2020/12/09 08:41:17;;;;;;;0.45;0.45;;;8.50;99.90;;;;;;4914560;29;20233;-74
2020/12/09 08:43:46;;;;;;;0.40;0.40;;;8.50;99.90;;;;;;4932028;29;20028;-73
2020/12/09 08:46:14;;;;;;;0.60;0.60;;;8.50;99.90;;;;;;4933157;29;20031;-73
2020/12/09 08:48:43;;;;;;;0.98;0.98;;;8.60;99.90;;;;;;4934837;29;20443;-74
2020/12/09 08:51:21;;;;;;;0.50;0.50;;;8.70;99.90;;;;;;4912408;29;20116;-75
2020/12/09 08:53:49;;;;;;;0.68;0.68;;;8.70;99.90;;;;;;4928258;29;20138;-76
2020/12/09 08:56:23;;;;;;;0.75;0.75;;;8.70;99.90;;;;;;4924748;29;20075;-74
2020/12/09 08:58:49;;;;;;;0.73;0.73;;;8.70;99.90;;;;;;4933736;29;20047;-73
2020/12/09 09:01:14;;;;;;;1.38;0.75;;;8.70;99.90;;;;;;4929126;29;20431;-73
2020/12/09 09:03:41;;;;;;;0.45;0.40;;;8.70;99.90;;;;;;4924154;29;20059;-74
2020/12/09 09:06:07;;;;;;;1.40;0.60;;;8.90;99.90;;;;;;4921974;29;20366;-74
2020/12/09 09:08:33;;;;;;;0.70;0.70;;;8.90;99.90;;;;;;4920058;29;20027;-74
2020/12/09 09:10:59;;;;;;;1.60;0.73;;;9.00;99.90;;;;;;4928616;29;20027;-69
2020/12/09 09:13:25;;;;;;;0.50;0.50;;;9.20;99.90;;;;;;4927385;29;20024;-70
2020/12/09 09:15:50;;;;;;;0.85;0.40;;;9.30;99.90;;;;;;4936137;29;20028;-69
2020/12/09 09:18:16;;;;;;;1.27;0.93;;;9.30;99.90;;;;;;4917392;29;20059;-69
2020/12/09 09:20:42;;;;;;;0.77;0.73;;;9.20;99.90;;;;;;4932657;29;20403;-70
2020/12/09 09:23:08;;;;;;;0.52;0.52;;;9.20;99.90;;;;;;4913313;29;20411;-70
2020/12/09 09:25:35;;;;;;;0.80;0.60;;;9.20;99.90;;;;;;4932795;29;20024;-70
2020/12/09 09:28:01;;;;;;;0.80;0.77;;;9.30;99.90;;;;;;4932369;29;20067;-68
2020/12/09 09:30:27;;;;;;;1.40;0.52;;;9.40;99.90;;;;;;4910103;29;20071;-69
2020/12/09 09:32:53;;;;;;;0.52;0.52;;;9.20;99.90;;;;;;4933898;29;20502;-72
2020/12/09 09:35:19;;;;;;;0.80;0.70;;;9.10;99.90;;;;;;4923672;29;20165;-72
2020/12/09 09:37:46;;;;;;;0.52;0.52;;;9.00;99.90;;;;;;4929497;29;20028;-72
2020/12/09 09:40:13;;;;;;;0.82;0.70;;;8.90;99.90;;;;;;4912312;29;20024;-72
2020/12/09 09:42:39;;;;;;;0.63;0.63;;;8.80;99.90;;;;;;4936841;29;20024;-73
2020/12/09 09:45:07;;;;;;;0.73;0.73;;;8.80;99.90;;;;;;4924336;29;20035;-71
2020/12/09 09:47:34;;;;;;;1.95;1.13;;;8.80;99.90;;;;;;4929051;29;20533;-70
2020/12/09 09:49:59;;;;;;;2.28;0.98;;;8.80;99.90;;;;;;4941770;29;20035;-72
2020/12/09 09:52:25;;;;;;;1.17;0.63;;;8.90;99.90;;;;;;4932113;29;20027;-71
2020/12/09 09:54:51;;;;;;;2.17;0.77;;;8.90;99.90;;;;;;4913060;29;20027;-73
2020/12/09 09:57:17;;;;;;;0.60;0.60;;;8.80;99.90;;;;;;4909757;29;20115;-72
2020/12/09 09:59:43;;;;;;;0.60;0.60;;;8.90;99.90;;;;;;4904077;29;20039;-73
2020/12/09 10:02:09;;;;;;;1.40;1.30;;;8.90;99.90;;;;;;4924280;29;20086;-72
2020/12/09 10:04:34;;;;;;;1.20;1.10;;;8.80;99.90;;;;;;4920113;29;20028;-73
2020/12/09 10:07:02;;;;;;;1.48;1.35;;;8.70;99.90;;;;;;4921867;29;20028;-72
2020/12/09 10:09:28;;;;;;;1.50;1.08;;;8.70;99.90;;;;;;4922186;29;20386;-72
2020/12/09 10:11:54;;;;;;;1.45;1.05;;;8.60;99.90;;;;;;4930919;29;20027;-72
2020/12/09 10:14:20;;;;;;;0.82;0.77;;;8.60;99.90;;;;;;4928846;29;20016;-72
2020/12/09 10:16:46;;;;;;;2.97;1.10;;;8.70;99.90;;;;;;4921509;29;20032;-72
2020/12/09 10:19:13;;;;;;;1.38;1.05;;;8.60;99.90;;;;;;4928964;29;20467;-72
2020/12/09 10:21:39;;;;;;;0.80;0.80;;;8.60;99.90;;;;;;4931353;29;20036;-70
2020/12/09 10:24:06;;;;;;;0.80;0.80;;;8.60;99.90;;;;;;4926683;29;20036;-71
2020/12/09 10:26:34;;;;;;;0.90;0.90;;;8.60;99.90;;;;;;4929801;29;20509;-71
2020/12/09 10:29:02;;;;;;;1.13;0.95;;;8.60;99.90;;;;;;4908000;29;20054;-72
2020/12/09 10:31:42;;;;;;;1.65;1.08;;;8.70;99.90;;;;;;4926321;29;20415;-72
2020/12/09 10:34:11;;;;;;;1.92;1.10;;;8.80;99.90;;;;;;4931685;29;20039;-72
2020/12/09 10:36:38;;;;;;;3.92;0.77;;;9.00;99.90;;;;;;4908761;29;20059;-73
2020/12/09 10:39:07;;;;;;;0.60;0.60;;;9.10;99.90;;;;;;4925955;29;20028;-71
2020/12/09 10:41:34;;;;;;;0.60;0.60;;;9.20;99.90;;;;;;4916762;29;20491;-72
2020/12/09 10:44:00;;;;;;;1.10;1.00;;;9.30;99.90;;;;;;4918365;29;20043;-70
2020/12/09 10:46:32;;;;;;;0.85;0.82;;;9.40;99.90;;;;;;4915287;29;20048;-72
2020/12/09 10:48:59;;;;;;;0.90;0.77;;;9.40;99.90;;;;;;4928599;29;20036;-72
2020/12/09 10:51:28;;;;;;;0.93;0.77;;;9.40;99.90;;;;;;4929856;29;20264;-72
2020/12/09 10:53:54;;;;;;;0.90;0.75;;;9.50;99.90;;;;;;4929908;29;20046;-72
2020/12/09 10:56:38;;;;;;;4.07;0.93;;;9.50;99.90;;;;;;4924872;29;20026;-71
2020/12/09 10:59:04;;;;;;;0.50;0.50;;;9.50;99.90;;;;;;4924760;29;20055;-72
2020/12/09 11:01:32;;;;;;;3.20;0.55;;;9.50;99.90;;;;;;4916744;29;20021;-72
2020/12/09 11:04:01;;;;;;;0.90;0.60;;;9.50;99.90;;;;;;4920119;29;20027;-72
2020/12/09 11:06:32;;;;;;;0.68;0.40;;;9.50;99.90;;;;;;4901364;29;20099;-71
2020/12/09 11:08:59;;;;;;;2.05;1.13;;;9.50;99.90;;;;;;4923241;29;20042;-72
2020/12/09 11:11:26;;;;;;;0.60;0.60;;;9.60;99.90;;;;;;4934422;29;20028;-71
2020/12/09 11:13:53;;;;;;;4.10;0.57;;;9.60;99.90;;;;;;4911251;29;20036;-72
2020/12/09 11:16:21;;;;;;;8.43;0.90;;;9.70;99.90;;;;;;4922553;29;20024;-72
2020/12/09 11:18:47;;;;;;;1.10;1.10;;;9.80;99.90;;;;;;4913384;29;20043;-72
2020/12/09 11:21:18;;;;;;;0.98;0.85;;;9.80;99.90;;;;;;4927141;29;20076;-72
2020/12/09 11:23:45;;;;;;;0.50;0.50;;;9.90;99.90;;;;;;4928432;29;20036;-71
2020/12/09 11:26:15;;;;;;;0.40;0.40;;;10.00;99.90;;;;;;4926897;29;20032;-72
2020/12/09 11:28:41;;;;;;;0.70;0.70;;;9.90;99.90;;;;;;4916340;29;20027;-72
2020/12/09 11:31:07;;;;;;;1.13;0.90;;;10.00;99.90;;;;;;4930991;29;20107;-72
2020/12/09 11:33:33;;;;;;;0.95;0.60;;;10.10;99.90;;;;;;4917614;29;20023;-72
2020/12/09 11:35:59;;;;;;;0.63;0.63;;;10.10;99.90;;;;;;4922596;29;20106;-72
2020/12/09 11:38:27;;;;;;;0.93;0.82;;;10.20;99.90;;;;;;4926225;29;20383;-72
2020/12/09 11:40:53;;;;;;;1.67;1.25;;;10.30;99.90;;;;;;4933400;29;20483;-72
2020/12/09 11:43:19;;;;;;;4.60;1.23;;;10.30;99.90;;;;;;4917112;29;20502;-73
2020/12/09 11:45:46;;;;;;;2.00;1.40;;;10.40;99.90;;;;;;4929105;29;20028;-73
2020/12/09 11:48:13;;;;;;;3.60;1.30;;;10.50;99.90;;;;;;4936425;29;20028;-74
2020/12/09 11:50:40;;;;;;;1.05;0.60;;;10.50;99.90;;;;;;4935482;29;20023;-74
2020/12/09 11:53:06;;;;;;;3.97;1.23;;;10.30;99.90;;;;;;4927084;29;20035;-76
2020/12/09 11:55:32;;;;;;;8.02;1.13;;;10.00;99.90;;;;;;4929419;29;20024;-74
2020/12/09 11:58:07;;;;;;;3.20;0.90;;;9.90;99.90;;;;;;4907754;29;20028;-73
2020/12/09 12:00:33;;;;;;;1.55;0.60;;;9.80;99.90;;;;;;4927362;29;20398;-74
2020/12/09 12:02:58;;;;;;;1.23;1.05;;;9.80;99.90;;;;;;4927657;29;20036;-74
2020/12/09 12:05:26;;;;;;;1.35;1.20;;;9.80;99.90;;;;;;4933992;29;20106;-73
2020/12/09 12:07:53;;;;;;;7.70;1.27;;;9.90;99.90;;;;;;4925450;29;20399;-74
2020/12/09 12:10:18;;;;;;;7.30;1.10;;;10.00;99.90;;;;;;4926283;29;20031;-74
2020/12/09 12:12:44;;;;;;;0.90;0.90;;;10.10;99.90;;;;;;4915786;29;20581;-72
2020/12/09 12:15:10;;;;;;;1.60;1.10;;;10.10;99.90;;;;;;4928445;29;20042;-72
2020/12/09 12:17:36;;;;;;;1.73;1.25;;;10.00;99.90;;;;;;4924783;29;20369;-72
2020/12/09 12:20:02;;;;;;;1.48;1.38;;;10.00;99.90;;;;;;4931535;29;20044;-70
2020/12/09 12:22:28;;;;;;;10.95;1.67;;;9.90;99.90;;;;;;4942220;29;20100;-70
2020/12/09 12:24:54;;;;;;;0.88;0.80;;;9.90;99.90;;;;;;4943167;29;20040;-70
2020/12/09 12:27:20;;;;;;;0.85;0.80;;;9.90;99.90;;;;;;4938879;29;20024;-73
2020/12/09 12:29:45;;;;;;;0.70;0.70;;;9.90;99.90;;;;;;4921261;29;20603;-72
2020/12/09 12:32:11;;;;;;;0.80;0.80;;;9.80;99.90;;;;;;4919855;29;20127;-70
2020/12/09 12:34:37;;;;;;;11.43;1.92;;;9.80;99.90;;;;;;4936595;29;20038;-71
2020/12/09 12:37:04;;;;;;;1.05;0.70;;;10.00;99.90;;;;;;4922285;29;20020;-72
2020/12/09 12:39:30;;;;;;;0.70;0.70;;;10.10;99.90;;;;;;4927867;29;20027;-71
2020/12/09 12:41:56;;;;;;;1.02;0.98;;;10.20;99.90;;;;;;4934625;29;20103;-71
2020/12/09 12:44:22;;;;;;;2.80;1.30;;;10.30;99.90;;;;;;4925953;29;20044;-72
2020/12/09 12:46:49;;;;;;;1.17;1.08;;;10.40;99.90;;;;;;4920513;29;20063;-71
2020/12/09 12:49:16;;;;;;;1.25;1.10;;;10.40;99.90;;;;;;4925677;29;20352;-71
2020/12/09 12:51:42;;;;;;;2.88;1.35;;;10.20;99.90;;;;;;4926417;29;20055;-71
2020/12/09 12:54:08;;;;;;;10.90;2.72;;;10.10;99.90;;;;;;4914254;29;20466;-72
2020/12/09 12:56:34;;;;;;;5.45;1.33;;;10.30;99.90;;;;;;4926424;29;20024;-73
2020/12/09 12:59:00;;;;;;;2.42;0.88;;;10.30;99.90;;;;;;4921680;29;20087;-72
2020/12/09 13:01:26;;;;;;;1.23;0.80;;;10.40;99.90;;;;;;4927780;29;20020;-72
2020/12/09 13:03:55;;;;;;;3.72;1.00;;;10.50;99.90;;;;;;4930373;29;20024;-72
2020/12/09 13:06:20;;;;;;;1.20;1.10;;;10.40;99.90;;;;;;4907090;29;20115;-72
2020/12/09 13:08:47;;;;;;;1.48;1.08;;;10.40;99.90;;;;;;4931084;29;20110;-72
2020/12/09 13:11:14;;;;;;;1.65;0.80;;;10.40;99.90;;;;;;4927383;29;20495;-72
2020/12/09 13:13:40;;;;;;;1.10;0.95;;;10.40;99.90;;;;;;4931629;29;20519;-73
2020/12/09 13:16:08;;;;;;;1.58;0.95;;;10.50;99.90;;;;;;4919414;29;20024;-71
2020/12/09 13:18:34;;;;;;;1.50;1.40;;;10.30;99.90;;;;;;4924328;29;20518;-70
2020/12/09 13:21:01;;;;;;;1.42;1.02;;;10.20;99.90;;;;;;4928461;29;20119;-72
2020/12/09 13:23:27;;;;;;;1.17;1.08;;;10.10;99.90;;;;;;4929881;29;20035;-71
2020/12/09 13:25:52;;;;;;;0.93;0.93;;;10.20;99.90;;;;;;4935054;29;20028;-72
2020/12/09 13:28:18;;;;;;;0.70;0.60;;;10.10;99.90;;;;;;4931400;29;20031;-71
2020/12/09 13:30:44;;;;;;;1.17;1.08;;;10.00;99.90;;;;;;4926546;29;20028;-71